Time;durP1;ratioP1;P1;durP2;ratioP2;P2;SDS_P1;SDS_P2;PMS_P1;PMS_P2;Temp;Humidity;BMP_temperature;BMP_pressure;BME280_temperature;BME280_humidity;BME280_pressure;Samples;Min_cycle;Max_cycle;Signal;HPM_P1;HPM_P2
2023/09/13 00:00:57;;;;;;;6.82;1.40;;;19.10;99.90;;;;;;5042609;28;20045;-67
2023/09/13 00:03:25;;;;;;;6.07;1.73;;;19.00;99.90;;;;;;5065244;28;20071;-67
2023/09/13 00:05:51;;;;;;;5.47;1.20;;;19.00;99.90;;;;;;5030519;28;20083;-67
2023/09/13 00:08:17;;;;;;;4.35;1.42;;;19.00;99.90;;;;;;5062260;28;20041;-67
2023/09/13 00:10:44;;;;;;;6.50;1.23;;;19.00;99.90;;;;;;5050807;28;20501;-67
2023/09/13 00:13:13;;;;;;;4.03;0.95;;;19.00;99.90;;;;;;5067817;28;20087;-67
2023/09/13 00:15:48;;;;;;;8.82;1.60;;;19.00;99.90;;;;;;5045928;28;20472;-67
2023/09/13 00:18:19;;;;;;;6.30;1.35;;;19.00;99.90;;;;;;5042498;28;20044;-66
2023/09/13 00:20:51;;;;;;;8.70;1.33;;;18.90;99.90;;;;;;5029369;28;20101;-67
2023/09/13 00:23:19;;;;;;;6.10;1.23;;;18.90;99.90;;;;;;5039240;28;20044;-67
2023/09/13 00:25:44;;;;;;;3.53;1.17;;;18.90;99.90;;;;;;5025892;28;20096;-67
2023/09/13 00:28:10;;;;;;;5.85;1.25;;;18.90;99.90;;;;;;5044222;28;20032;-67
2023/09/13 00:30:41;;;;;;;7.47;1.90;;;18.90;99.90;;;;;;5043758;28;20486;-67
2023/09/13 00:33:09;;;;;;;4.15;1.10;;;18.90;99.90;;;;;;5044286;28;20041;-67
2023/09/13 00:35:35;;;;;;;5.22;1.08;;;18.90;99.90;;;;;;5044149;28;20046;-67
2023/09/13 00:38:01;;;;;;;3.67;1.10;;;18.80;99.90;;;;;;5046621;28;20468;-67
2023/09/13 00:40:26;;;;;;;4.78;1.17;;;18.80;99.90;;;;;;5043844;28;20063;-67
2023/09/13 00:42:54;;;;;;;4.35;1.23;;;18.80;99.90;;;;;;5070336;28;20032;-67
2023/09/13 00:45:20;;;;;;;4.60;1.20;;;18.80;99.90;;;;;;5065383;28;20070;-67
2023/09/13 00:47:47;;;;;;;;;;;18.80;99.90;;;;;;5066915;28;20123;-67
2023/09/13 00:50:14;;;;;;;5.43;1.40;;;18.80;99.90;;;;;;5066632;28;20018;-66
2023/09/13 00:52:42;;;;;;;4.22;1.50;;;18.80;99.90;;;;;;5049323;28;20243;-67
2023/09/13 00:55:11;;;;;;;9.00;1.50;;;18.80;99.90;;;;;;5049231;28;20059;-67
2023/09/13 00:57:40;;;;;;;7.55;1.33;;;18.80;99.90;;;;;;5073737;28;20036;-67
2023/09/13 01:00:10;;;;;;;4.57;1.50;;;18.80;99.90;;;;;;5068193;28;20036;-67
2023/09/13 01:02:39;;;;;;;4.82;1.77;;;18.80;99.90;;;;;;5060444;28;20477;-67
2023/09/13 01:05:07;;;;;;;9.43;1.50;;;18.70;99.90;;;;;;5032208;28;20044;-67
2023/09/13 01:07:34;;;;;;;6.95;1.20;;;18.70;99.90;;;;;;5059135;28;20110;-66
2023/09/13 01:09:59;;;;;;;4.47;1.40;;;18.70;99.90;;;;;;5051552;28;20036;-67
2023/09/13 01:12:25;;;;;;;4.43;1.45;;;18.70;99.90;;;;;;5045217;28;20093;-67
2023/09/13 01:14:51;;;;;;;5.25;1.00;;;18.70;99.90;;;;;;5071386;28;20044;-67
2023/09/13 01:17:46;;;;;;;4.53;1.10;;;18.70;99.90;;;;;;5065965;28;20511;-66
2023/09/13 01:20:57;;;;;;;3.58;1.33;;;18.70;99.90;;;;;;5046086;28;20110;-67
2023/09/13 01:23:43;;;;;;;4.63;0.82;;;18.70;99.90;;;;;;5046965;28;20045;-67
2023/09/13 01:26:35;;;;;;;5.43;1.23;;;18.60;99.90;;;;;;5066578;28;20123;-67
2023/09/13 01:29:04;;;;;;;5.72;1.27;;;18.60;99.90;;;;;;5042652;28;20500;-67
2023/09/13 01:31:31;;;;;;;3.97;0.95;;;18.60;99.90;;;;;;5041748;28;20078;-67
2023/09/13 01:33:59;;;;;;;4.10;1.30;;;18.60;99.90;;;;;;5046182;28;20044;-67
2023/09/13 01:36:28;;;;;;;2.55;0.85;;;18.60;99.90;;;;;;5052249;28;20051;-67
2023/09/13 01:38:56;;;;;;;4.32;1.20;;;18.60;99.90;;;;;;5055696;28;20045;-67
2023/09/13 01:41:33;;;;;;;5.50;1.00;;;18.60;99.90;;;;;;5063626;28;20040;-67
2023/09/13 01:43:59;;;;;;;;;;;18.60;99.90;;;;;;5048497;28;20054;-67
2023/09/13 01:46:32;;;;;;;4.60;1.30;;;18.60;99.90;;;;;;5047297;28;19916;-67
2023/09/13 01:48:59;;;;;;;4.13;1.20;;;18.50;99.90;;;;;;5062206;28;20222;-66
2023/09/13 01:51:27;;;;;;;9.00;1.52;;;18.50;99.90;;;;;;5052672;28;20043;-67
2023/09/13 01:53:54;;;;;;;4.10;1.08;;;18.50;99.90;;;;;;5055202;28;20040;-66
2023/09/13 01:56:21;;;;;;;5.30;1.13;;;18.50;99.90;;;;;;5037851;28;20048;-66
2023/09/13 01:58:48;;;;;;;5.65;1.35;;;18.50;99.90;;;;;;5064424;28;20052;-66
2023/09/13 02:01:14;;;;;;;5.93;1.55;;;18.50;99.90;;;;;;5060594;28;20063;-67
2023/09/13 02:03:40;;;;;;;;;;;18.50;99.90;;;;;;5031580;28;20472;-67
2023/09/13 02:06:08;;;;;;;5.68;1.75;;;18.40;99.90;;;;;;5061617;28;19917;-67
2023/09/13 02:08:34;;;;;;;6.93;1.50;;;18.40;99.90;;;;;;5043404;28;20067;-67
2023/09/13 02:11:00;;;;;;;5.35;1.17;;;18.40;99.90;;;;;;5043773;28;20036;-66
2023/09/13 02:13:25;;;;;;;6.43;1.27;;;18.40;99.90;;;;;;5051517;28;20135;-67
2023/09/13 02:15:51;;;;;;;5.65;1.10;;;18.40;99.90;;;;;;5048801;28;20504;-67
2023/09/13 02:18:17;;;;;;;4.47;1.15;;;18.30;99.90;;;;;;5042107;28;20048;-66
2023/09/13 02:20:45;;;;;;;3.20;0.93;;;18.30;99.90;;;;;;5041264;28;20043;-66
2023/09/13 02:23:13;;;;;;;4.22;1.27;;;18.30;99.90;;;;;;5048535;28;20480;-66
2023/09/13 02:25:45;;;;;;;8.52;1.40;;;18.20;99.90;;;;;;5064989;28;20060;-67
2023/09/13 02:28:11;;;;;;;3.33;0.82;;;18.30;99.90;;;;;;5044615;28;20041;-66
2023/09/13 02:30:37;;;;;;;3.78;1.30;;;18.20;99.90;;;;;;5042816;28;20038;-67
2023/09/13 02:33:03;;;;;;;;;;;18.20;99.90;;;;;;5051547;28;20040;-66
2023/09/13 02:35:32;;;;;;;4.00;1.15;;;18.20;99.90;;;;;;5028802;28;19924;-67
2023/09/13 02:37:59;;;;;;;5.32;1.20;;;18.20;99.90;;;;;;5044955;28;20060;-66
2023/09/13 02:40:25;;;;;;;9.07;1.00;;;18.20;99.90;;;;;;5051628;28;20544;-66
2023/09/13 02:42:50;;;;;;;4.85;0.73;;;18.20;99.90;;;;;;5047145;28;20040;-66
2023/09/13 02:45:16;;;;;;;4.45;1.40;;;18.10;99.90;;;;;;5042987;28;20283;-67
2023/09/13 02:47:44;;;;;;;2.67;0.65;;;18.10;99.90;;;;;;5043808;28;20045;-67
2023/09/13 02:50:11;;;;;;;4.30;1.05;;;18.10;99.90;;;;;;5046612;28;20047;-67
2023/09/13 02:52:36;;;;;;;5.57;1.23;;;18.10;99.90;;;;;;5066430;28;20135;-66
2023/09/13 02:55:05;;;;;;;8.25;1.15;;;18.10;99.90;;;;;;5062905;28;20561;-66
2023/09/13 02:57:31;;;;;;;4.10;1.45;;;18.10;99.90;;;;;;5064225;28;20040;-66
2023/09/13 02:59:57;;;;;;;7.20;1.23;;;18.10;99.90;;;;;;5064718;28;20075;-67
2023/09/13 03:02:22;;;;;;;7.55;1.27;;;18.10;99.90;;;;;;5042987;28;20079;-67
2023/09/13 03:04:56;;;;;;;2.33;0.77;;;18.10;99.90;;;;;;5064816;28;20123;-67
2023/09/13 03:07:25;;;;;;;5.35;1.02;;;18.10;99.90;;;;;;5058595;28;20044;-66
2023/09/13 03:09:53;;;;;;;4.80;0.90;;;18.10;99.90;;;;;;5030344;28;20048;-66
2023/09/13 03:12:19;;;;;;;5.38;1.00;;;18.10;99.90;;;;;;5045687;28;20701;-66
2023/09/13 03:14:47;;;;;;;3.85;1.10;;;18.00;99.90;;;;;;5064914;28;20044;-66
2023/09/13 03:17:15;;;;;;;5.57;1.00;;;18.00;99.90;;;;;;5063955;28;20048;-66
2023/09/13 03:19:41;;;;;;;4.43;0.93;;;18.00;99.90;;;;;;5051536;28;20091;-66
2023/09/13 03:22:07;;;;;;;7.30;1.15;;;18.00;99.90;;;;;;5055624;22;20329;-70
2023/09/13 03:24:32;;;;;;;3.70;1.00;;;17.90;99.90;;;;;;5058723;28;20040;-71
2023/09/13 03:26:58;;;;;;;4.65;1.05;;;17.90;99.90;;;;;;5060047;28;20052;-71
2023/09/13 03:29:24;;;;;;;6.03;0.90;;;17.80;99.90;;;;;;5037139;28;20067;-71
2023/09/13 03:31:50;;;;;;;6.10;1.10;;;17.70;99.90;;;;;;5033855;28;20308;-71
2023/09/13 03:34:16;;;;;;;5.97;1.30;;;17.70;99.90;;;;;;5040696;28;20040;-70
2023/09/13 03:36:43;;;;;;;4.75;1.00;;;17.60;99.90;;;;;;5060050;28;20055;-70
2023/09/13 03:39:09;;;;;;;1.77;0.88;;;17.60;99.90;;;;;;5038130;28;20373;-71
2023/09/13 03:41:37;;;;;;;5.63;1.10;;;17.60;99.90;;;;;;5037597;28;20453;-71
2023/09/13 03:44:03;;;;;;;3.00;1.20;;;17.50;99.90;;;;;;5029578;28;20052;-71
2023/09/13 03:46:28;;;;;;;7.72;2.08;;;17.50;99.90;;;;;;5036392;28;20057;-70
2023/09/13 03:48:54;;;;;;;4.07;1.40;;;17.50;99.90;;;;;;5057949;28;20047;-70
2023/09/13 03:51:20;;;;;;;3.05;1.50;;;17.50;99.90;;;;;;5042650;28;20085;-70
2023/09/13 03:53:46;;;;;;;2.42;1.17;;;17.40;99.90;;;;;;5038370;28;20044;-70
2023/09/13 03:56:11;;;;;;;;;;;17.40;99.90;;;;;;5039432;28;20098;-70
2023/09/13 03:58:38;;;;;;;5.38;1.85;;;17.30;99.90;;;;;;5037191;28;19920;-71
2023/09/13 04:01:06;;;;;;;3.80;1.10;;;17.30;99.90;;;;;;5056888;28;20056;-71
2023/09/13 04:03:36;;;;;;;3.35;1.10;;;17.20;99.90;;;;;;5056533;28;20425;-70
2023/09/13 04:06:02;;;;;;;2.30;0.85;;;17.20;99.90;;;;;;5045225;28;20116;-70
2023/09/13 04:08:28;;;;;;;;;;;17.10;99.90;;;;;;5041647;28;20516;-70
2023/09/13 04:10:54;;;;;;;4.82;0.90;;;17.00;99.90;;;;;;5041321;28;19974;-71
2023/09/13 04:13:20;;;;;;;5.70;1.60;;;16.90;99.90;;;;;;5025975;28;20033;-71
2023/09/13 04:15:45;;;;;;;4.93;1.10;;;16.90;99.90;;;;;;5045629;28;20126;-71
2023/09/13 04:18:12;;;;;;;3.17;0.75;;;16.80;99.90;;;;;;5045483;28;20037;-71
2023/09/13 04:20:45;;;;;;;;;;;16.70;99.90;;;;;;5044825;28;20048;-70
2023/09/13 04:23:10;;;;;;;2.45;0.65;;;16.70;99.90;;;;;;5039398;28;20175;-71
2023/09/13 04:25:36;;;;;;;2.92;1.00;;;16.60;99.90;;;;;;5044247;28;20639;-70
2023/09/13 04:28:02;;;;;;;6.82;1.52;;;16.60;99.90;;;;;;5063568;28;21510;-70
2023/09/13 04:30:27;;;;;;;6.97;1.08;;;16.50;99.90;;;;;;5043641;28;20048;-70
2023/09/13 04:32:57;;;;;;;3.60;1.27;;;16.50;99.90;;;;;;5058848;28;20522;-71
2023/09/13 04:35:22;;;;;;;3.80;1.70;;;16.50;99.90;;;;;;5041113;28;20264;-70
2023/09/13 04:37:51;;;;;;;4.20;1.30;;;16.40;99.90;;;;;;5037805;28;20040;-71
2023/09/13 04:40:16;;;;;;;7.07;1.25;;;16.40;99.90;;;;;;5053407;28;20405;-71
2023/09/13 04:42:50;;;;;;;4.65;1.15;;;16.30;99.90;;;;;;5037939;28;20048;-71
2023/09/13 04:45:16;;;;;;;2.95;1.17;;;16.30;99.90;;;;;;5063218;28;20452;-71
2023/09/13 04:47:41;;;;;;;4.68;1.20;;;16.30;99.90;;;;;;5036952;28;20102;-71
2023/09/13 04:50:09;;;;;;;4.72;1.40;;;16.20;99.90;;;;;;5055764;28;20105;-71
2023/09/13 04:52:35;;;;;;;4.93;1.13;;;16.20;99.90;;;;;;5045288;28;20446;-71
2023/09/13 04:55:05;;;;;;;5.05;1.20;;;16.10;99.90;;;;;;5027281;28;20126;-71
2023/09/13 04:57:30;;;;;;;2.90;0.90;;;16.10;99.90;;;;;;5045946;28;20612;-71
2023/09/13 05:00:06;;;;;;;5.30;1.20;;;16.00;99.90;;;;;;5057270;28;20077;-71
2023/09/13 05:02:31;;;;;;;7.60;1.33;;;16.00;99.90;;;;;;5040359;28;20064;-71
2023/09/13 05:05:02;;;;;;;3.83;1.30;;;16.00;99.90;;;;;;5043750;28;20362;-70
2023/09/13 05:07:28;;;;;;;7.15;1.35;;;15.90;99.90;;;;;;5043479;28;20047;-70
2023/09/13 05:09:53;;;;;;;5.03;1.17;;;15.90;99.90;;;;;;5025040;28;20536;-71
2023/09/13 05:12:19;;;;;;;4.32;1.58;;;15.90;99.90;;;;;;5065193;28;20071;-71
2023/09/13 05:14:45;;;;;;;7.00;1.35;;;15.90;99.90;;;;;;5065368;28;20056;-71
2023/09/13 05:17:20;;;;;;;5.60;1.10;;;15.90;99.90;;;;;;5042754;28;20040;-70
2023/09/13 05:19:45;;;;;;;6.47;1.42;;;15.80;99.90;;;;;;5041831;28;20048;-70
2023/09/13 05:22:14;;;;;;;3.35;1.75;;;15.80;99.90;;;;;;5040653;28;20601;-71
2023/09/13 05:24:39;;;;;;;3.97;1.20;;;15.80;99.90;;;;;;5058400;28;20389;-71
2023/09/13 05:27:05;;;;;;;3.92;1.00;;;15.80;99.90;;;;;;5042651;28;20059;-70
2023/09/13 05:29:30;;;;;;;7.22;1.35;;;15.80;99.90;;;;;;5041176;28;20060;-70
2023/09/13 05:31:56;;;;;;;5.97;1.52;;;15.80;99.90;;;;;;5033924;28;20059;-70
2023/09/13 05:34:22;;;;;;;4.65;1.08;;;15.70;99.90;;;;;;5042063;28;20500;-70
2023/09/13 05:36:50;;;;;;;4.53;1.25;;;15.70;99.90;;;;;;5041966;28;20124;-70
2023/09/13 05:39:16;;;;;;;3.70;1.50;;;15.70;99.90;;;;;;5035714;28;20045;-70
2023/09/13 05:41:42;;;;;;;6.70;1.52;;;15.60;99.90;;;;;;5061676;28;20040;-70
2023/09/13 05:44:10;;;;;;;;;;;15.60;99.90;;;;;;5027355;28;20052;-70
2023/09/13 05:46:36;;;;;;;5.43;1.65;;;15.50;99.90;;;;;;5039747;28;19962;-70
2023/09/13 05:49:02;;;;;;;8.48;2.10;;;15.40;99.90;;;;;;5060016;28;20076;-70
2023/09/13 05:51:27;;;;;;;6.82;1.70;;;15.30;99.90;;;;;;5039109;28;20052;-74
2023/09/13 05:53:53;;;;;;;7.80;2.50;;;15.30;99.90;;;;;;5042267;28;20044;-72
2023/09/13 05:56:19;;;;;;;9.90;2.05;;;15.30;99.90;;;;;;5040014;28;20413;-71
2023/09/13 05:58:44;;;;;;;6.63;1.90;;;15.20;99.90;;;;;;5061864;28;20036;-71
2023/09/13 06:01:12;;;;;;;7.70;1.88;;;15.20;99.90;;;;;;5040208;28;20044;-71
2023/09/13 06:03:38;;;;;;;6.45;2.08;;;15.10;99.90;;;;;;5023197;28;20147;-70
2023/09/13 06:06:04;;;;;;;10.13;2.05;;;15.10;99.90;;;;;;5040532;28;20186;-70
2023/09/13 06:08:30;;;;;;;7.85;1.77;;;15.10;99.90;;;;;;5059114;28;20476;-70
2023/09/13 06:10:55;;;;;;;8.20;2.05;;;15.10;99.90;;;;;;5048180;28;20042;-70
2023/09/13 06:13:21;;;;;;;6.10;1.92;;;15.10;99.90;;;;;;5061898;28;20060;-71
2023/09/13 06:15:47;;;;;;;7.87;1.70;;;15.00;99.90;;;;;;5056225;28;20055;-70
2023/09/13 06:18:12;;;;;;;4.97;1.83;;;15.10;99.90;;;;;;5039485;28;20376;-70
2023/09/13 06:20:41;;;;;;;7.78;2.67;;;15.10;99.90;;;;;;5026875;28;20442;-72
2023/09/13 06:23:07;;;;;;;6.45;2.03;;;15.10;99.90;;;;;;5039130;28;20085;-71
2023/09/13 06:25:32;;;;;;;9.35;2.08;;;15.10;99.90;;;;;;5040981;28;20500;-70
2023/09/13 06:27:58;;;;;;;6.05;2.15;;;15.10;99.90;;;;;;5043510;28;20047;-71
2023/09/13 06:30:26;;;;;;;8.30;2.00;;;15.20;99.90;;;;;;5064968;28;20052;-73
2023/09/13 06:32:55;;;;;;;6.57;1.90;;;15.20;99.90;;;;;;5039168;28;20608;-70
2023/09/13 06:35:21;;;;;;;7.60;1.90;;;15.20;99.90;;;;;;5041708;28;20171;-70
2023/09/13 06:37:47;;;;;;;6.40;1.70;;;15.30;99.90;;;;;;5036579;28;20131;-70
2023/09/13 06:40:13;;;;;;;6.03;1.80;;;15.30;99.90;;;;;;5043038;28;20510;-71
2023/09/13 06:42:40;;;;;;;7.95;2.58;;;15.30;99.90;;;;;;5048239;28;20114;-71
2023/09/13 06:45:07;;;;;;;5.22;1.50;;;15.30;99.90;;;;;;5037051;28;20044;-71
2023/09/13 06:47:35;;;;;;;7.65;1.83;;;15.30;99.90;;;;;;5027781;28;20126;-70
2023/09/13 06:50:00;;;;;;;6.50;1.92;;;15.30;99.90;;;;;;5041537;28;20712;-71
2023/09/13 06:52:26;;;;;;;4.45;1.45;;;15.40;99.90;;;;;;5043630;28;20033;-70
2023/09/13 06:54:52;;;;;;;6.32;1.58;;;15.40;99.90;;;;;;5042123;28;20040;-71
2023/09/13 06:57:17;;;;;;;6.57;1.63;;;15.40;99.90;;;;;;5042702;28;20093;-70
2023/09/13 06:59:43;;;;;;;4.85;1.30;;;15.50;99.90;;;;;;5043964;28;20083;-71
2023/09/13 07:02:09;;;;;;;6.45;1.10;;;15.50;99.90;;;;;;5040995;28;20040;-70
2023/09/13 07:04:35;;;;;;;7.82;1.75;;;15.50;99.90;;;;;;5043968;28;20098;-71
2023/09/13 07:07:00;;;;;;;8.57;1.35;;;15.50;99.90;;;;;;5025601;28;20044;-70
2023/09/13 07:09:26;;;;;;;5.28;1.88;;;15.60;99.90;;;;;;5046021;28;20044;-71
2023/09/13 07:11:52;;;;;;;6.15;1.25;;;15.60;99.90;;;;;;5055804;28;20044;-70
2023/09/13 07:14:18;;;;;;;4.90;1.35;;;15.60;99.90;;;;;;5035164;28;20127;-71
2023/09/13 07:16:43;;;;;;;5.22;1.20;;;15.70;99.90;;;;;;5042153;28;20528;-71
2023/09/13 07:19:09;;;;;;;4.80;1.40;;;15.70;99.90;;;;;;5051402;28;20036;-71
2023/09/13 07:21:34;;;;;;;6.15;1.95;;;15.70;99.90;;;;;;5034819;28;20052;-71
2023/09/13 07:24:00;;;;;;;3.65;1.20;;;15.70;99.90;;;;;;5039584;28;20068;-71
2023/09/13 07:26:26;;;;;;;9.33;2.07;;;15.70;99.90;;;;;;5038293;28;20048;-71
2023/09/13 07:28:51;;;;;;;6.70;1.17;;;15.70;99.90;;;;;;5053581;28;20293;-70
2023/09/13 07:31:17;;;;;;;3.65;0.93;;;15.80;99.90;;;;;;5036807;28;20450;-71
2023/09/13 07:33:42;;;;;;;4.32;1.35;;;15.80;99.90;;;;;;5024789;28;20509;-71
2023/09/13 07:36:08;;;;;;;6.55;1.63;;;15.80;99.90;;;;;;5042066;28;20046;-71
2023/09/13 07:38:35;;;;;;;4.82;0.90;;;15.80;99.90;;;;;;5039132;28;20404;-71
2023/09/13 07:41:00;;;;;;;4.38;1.08;;;15.70;99.90;;;;;;5035753;28;20122;-71
2023/09/13 07:43:27;;;;;;;4.72;0.93;;;15.80;99.90;;;;;;5035848;28;20084;-71
2023/09/13 07:45:53;;;;;;;6.30;1.13;;;15.80;99.90;;;;;;5038923;28;20075;-71
2023/09/13 07:48:18;;;;;;;5.22;1.20;;;15.80;99.90;;;;;;5046919;28;20037;-72
2023/09/13 07:50:45;;;;;;;6.25;1.00;;;15.80;99.90;;;;;;5043498;28;20541;-71
2023/09/13 07:53:12;;;;;;;9.43;1.08;;;15.90;99.90;;;;;;5033917;28;20696;-71
2023/09/13 07:55:38;;;;;;;3.78;1.08;;;15.90;99.90;;;;;;5029281;28;20053;-71
2023/09/13 07:58:06;;;;;;;;;;;15.90;99.90;;;;;;5025634;28;20474;-71
2023/09/13 08:00:32;;;;;;;6.13;1.25;;;16.00;99.90;;;;;;5040441;28;19967;-71
2023/09/13 08:02:58;;;;;;;;;;;16.00;99.90;;;;;;5061950;28;20048;-71
2023/09/13 08:05:24;;;;;;;7.60;1.30;;;16.10;99.90;;;;;;5049399;28;19920;-71
2023/09/13 08:07:49;;;;;;;8.65;1.88;;;16.10;99.90;;;;;;5040136;28;20409;-72
2023/09/13 08:10:15;;;;;;;5.25;1.23;;;16.20;99.90;;;;;;5044927;28;20322;-71
2023/09/13 08:12:41;;;;;;;5.70;1.52;;;16.20;99.90;;;;;;5045226;28;20127;-71
2023/09/13 08:15:07;;;;;;;3.88;1.27;;;16.20;99.90;;;;;;5044120;28;20506;-72
2023/09/13 08:17:33;;;;;;;5.80;1.30;;;16.20;99.90;;;;;;5049483;28;20127;-71
2023/09/13 08:20:00;;;;;;;;;;;16.30;99.90;;;;;;5041839;28;20132;-71
2023/09/13 08:22:26;;;;;;;4.57;1.05;;;16.30;99.90;;;;;;5048532;28;20018;-72
2023/09/13 08:24:54;;;;;;;3.70;1.00;;;16.30;99.90;;;;;;5047618;28;20131;-72
2023/09/13 08:27:20;;;;;;;4.22;1.95;;;16.40;99.90;;;;;;5046848;28;20044;-72
2023/09/13 08:29:46;;;;;;;5.57;1.80;;;16.40;99.90;;;;;;5046421;28;20110;-71
2023/09/13 08:32:11;;;;;;;7.50;1.02;;;16.50;99.90;;;;;;5045443;28;20112;-71
2023/09/13 08:34:37;;;;;;;5.35;1.83;;;16.50;99.90;;;;;;5065371;28;20040;-71
2023/09/13 08:37:03;;;;;;;4.35;1.20;;;16.60;99.90;;;;;;5057033;28;20064;-72
2023/09/13 08:39:28;;;;;;;3.50;0.82;;;16.60;99.90;;;;;;5038095;28;20051;-71
2023/09/13 08:41:55;;;;;;;5.00;1.42;;;16.60;99.90;;;;;;5031454;28;20068;-71
2023/09/13 08:44:22;;;;;;;4.65;1.45;;;16.60;99.90;;;;;;5026968;28;20366;-71
2023/09/13 08:46:55;;;;;;;4.97;1.30;;;16.60;99.90;;;;;;5027048;28;20040;-71
2023/09/13 08:49:21;;;;;;;6.82;1.23;;;16.60;99.90;;;;;;5032689;28;20222;-71
2023/09/13 08:51:48;;;;;;;4.47;1.35;;;16.50;99.90;;;;;;5037029;28;20044;-71
2023/09/13 08:54:16;;;;;;;8.93;1.60;;;16.50;99.90;;;;;;5050901;28;20218;-71
2023/09/13 08:56:45;;;;;;;5.68;1.52;;;16.50;99.90;;;;;;5051029;28;20613;-71
2023/09/13 08:59:15;;;;;;;7.28;1.40;;;16.50;99.90;;;;;;5035525;28;20476;-71
2023/09/13 09:01:47;;;;;;;6.05;1.77;;;16.50;99.90;;;;;;5037217;28;20068;-71
2023/09/13 09:04:14;;;;;;;8.90;1.98;;;16.50;99.90;;;;;;5041853;28;20041;-71
2023/09/13 09:06:41;;;;;;;9.15;1.63;;;16.50;99.90;;;;;;5049906;28;20259;-71
2023/09/13 09:09:07;;;;;;;4.25;1.45;;;16.60;99.90;;;;;;5047954;28;20043;-71
2023/09/13 09:11:36;;;;;;;5.82;1.98;;;16.60;99.90;;;;;;5049975;28;20146;-71
2023/09/13 09:14:02;;;;;;;5.38;1.75;;;16.60;99.90;;;;;;5032950;28;20136;-71
2023/09/13 09:16:31;;;;;;;4.75;1.50;;;16.60;99.90;;;;;;5040408;28;20124;-71
2023/09/13 09:19:00;;;;;;;5.72;1.90;;;16.70;99.90;;;;;;5049788;28;20048;-72
2023/09/13 09:21:26;;;;;;;5.53;2.30;;;16.70;99.90;;;;;;5066085;22;20040;-71
2023/09/13 09:23:53;;;;;;;7.85;1.92;;;16.70;99.90;;;;;;5078269;28;20040;-71
2023/09/13 09:26:20;;;;;;;8.93;2.20;;;16.60;99.90;;;;;;5062860;28;20127;-71
2023/09/13 09:28:46;;;;;;;5.30;2.17;;;16.40;99.90;;;;;;5056087;28;20513;-71
2023/09/13 09:31:12;;;;;;;10.82;2.10;;;16.40;99.90;;;;;;5082358;28;20036;-71
2023/09/13 09:33:39;;;;;;;;;;;16.30;99.90;;;;;;5066792;28;20043;-71
2023/09/13 09:36:08;;;;;;;6.30;1.92;;;16.30;99.90;;;;;;5088009;28;20377;-71
2023/09/13 09:38:35;;;;;;;3.80;1.50;;;16.30;99.90;;;;;;5074168;28;20038;-71
2023/09/13 09:41:03;;;;;;;7.40;1.60;;;16.10;99.90;;;;;;5081866;28;20127;-71
2023/09/13 09:43:30;;;;;;;3.75;1.48;;;16.20;99.90;;;;;;5047981;28;20117;-71
2023/09/13 09:45:56;;;;;;;5.45;1.85;;;16.10;99.90;;;;;;5072818;28;20069;-69
2023/09/13 09:48:22;;;;;;;4.07;1.77;;;16.10;99.90;;;;;;5067527;28;20050;-69
2023/09/13 09:50:52;;;;;;;3.20;1.63;;;16.10;99.90;;;;;;5070789;28;20043;-68
2023/09/13 09:53:19;;;;;;;4.53;1.40;;;16.00;99.90;;;;;;5066670;28;20047;-70
2023/09/13 09:55:45;;;;;;;6.72;1.75;;;16.10;99.90;;;;;;5059261;28;20138;-70
2023/09/13 09:58:11;;;;;;;;;;;16.10;99.90;;;;;;5064862;28;20050;-70
2023/09/13 10:00:51;;;;;;;5.50;1.50;;;16.20;99.90;;;;;;5068287;28;20381;-70
2023/09/13 10:03:17;;;;;;;6.53;1.80;;;16.30;99.90;;;;;;5076730;28;20048;-70
2023/09/13 10:05:59;;;;;;;5.20;1.90;;;16.50;99.90;;;;;;5065804;28;20413;-70
2023/09/13 10:08:48;;;;;;;6.15;1.60;;;16.60;99.90;;;;;;5058852;28;20044;-70
2023/09/13 10:11:15;;;;;;;5.38;1.63;;;16.70;99.90;;;;;;5062750;28;20048;-70
2023/09/13 10:13:45;;;;;;;6.25;1.50;;;16.80;99.90;;;;;;5076046;28;20379;-70
2023/09/13 10:16:12;;;;;;;3.88;1.55;;;17.00;99.90;;;;;;5057844;28;20267;-70
2023/09/13 10:18:48;;;;;;;7.47;1.55;;;17.10;99.90;;;;;;5057043;28;20040;-70
2023/09/13 10:21:19;;;;;;;5.90;1.85;;;17.20;99.90;;;;;;5084046;28;20041;-70
2023/09/13 10:23:49;;;;;;;4.63;1.52;;;17.40;99.90;;;;;;5092950;28;20178;-70
2023/09/13 10:26:17;;;;;;;4.40;2.00;;;17.50;99.90;;;;;;5065902;28;20049;-70
2023/09/13 10:28:49;;;;;;;5.43;1.95;;;17.60;99.90;;;;;;5071740;28;20039;-70
2023/09/13 10:31:31;;;;;;;5.93;2.15;;;17.70;99.90;;;;;;5059201;28;20064;-70
2023/09/13 10:34:04;;;;;;;7.80;2.03;;;17.80;99.90;;;;;;5062717;28;20083;-70
2023/09/13 10:36:36;;;;;;;3.90;1.73;;;17.90;99.90;;;;;;5072551;28;20037;-70
2023/09/13 10:39:29;;;;;;;3.30;1.75;;;18.10;99.90;;;;;;5042800;28;20051;-70
2023/09/13 10:42:08;;;;;;;5.00;1.75;;;18.20;99.90;;;;;;5056662;28;20052;-70
2023/09/13 10:44:35;;;;;;;4.10;1.70;;;18.30;99.90;;;;;;5060196;28;20502;-71
2023/09/13 10:47:03;;;;;;;5.85;1.80;;;18.40;99.90;;;;;;5060084;28;20051;-70
2023/09/13 10:49:29;;;;;;;6.80;1.65;;;18.60;99.90;;;;;;5048346;28;20044;-70
2023/09/13 10:51:58;;;;;;;3.85;1.40;;;18.70;99.90;;;;;;5066320;28;20042;-70
2023/09/13 10:54:25;;;;;;;7.22;1.98;;;18.80;99.90;;;;;;5066263;28;20051;-70
2023/09/13 10:56:51;;;;;;;4.75;1.63;;;19.00;99.90;;;;;;5094552;28;20047;-71
2023/09/13 10:59:18;;;;;;;5.55;1.65;;;19.00;99.90;;;;;;5067795;28;20052;-70
2023/09/13 11:01:47;;;;;;;3.45;1.50;;;19.00;99.90;;;;;;5043284;28;20040;-70
2023/09/13 11:04:14;;;;;;;5.72;1.52;;;19.00;99.90;;;;;;5066216;28;20044;-70
2023/09/13 11:06:42;;;;;;;5.32;2.03;;;19.00;99.90;;;;;;5085750;28;20040;-70
2023/09/13 11:09:29;;;;;;;6.75;1.58;;;19.10;99.90;;;;;;5056034;28;21984;-70
2023/09/13 11:11:57;;;;;;;2.92;1.38;;;19.10;99.90;;;;;;5061763;28;20044;-71
2023/09/13 11:14:28;;;;;;;5.68;1.83;;;19.20;99.90;;;;;;5063989;28;20419;-71
2023/09/13 11:16:54;;;;;;;7.70;1.73;;;19.30;99.90;;;;;;5058046;28;20113;-71
2023/09/13 11:19:27;;;;;;;3.65;1.63;;;19.30;99.90;;;;;;5054786;28;20059;-70
2023/09/13 11:22:00;;;;;;;4.38;1.77;;;19.40;99.90;;;;;;5063092;28;20051;-70
2023/09/13 11:24:43;;;;;;;4.43;1.33;;;19.50;99.90;;;;;;5065379;28;20036;-70
2023/09/13 11:27:13;;;;;;;4.88;1.73;;;19.70;99.90;;;;;;5073275;28;20048;-70
2023/09/13 11:29:52;;;;;;;5.50;1.95;;;19.80;99.90;;;;;;5068263;28;20040;-70
2023/09/13 11:32:25;;;;;;;4.38;1.80;;;19.80;99.90;;;;;;5069542;28;20048;-70
2023/09/13 11:35:01;;;;;;;2.80;1.45;;;19.80;99.90;;;;;;5066271;28;20046;-71
2023/09/13 11:37:27;;;;;;;4.83;2.00;;;19.70;99.90;;;;;;5065769;28;20044;-71
2023/09/13 11:39:53;;;;;;;;;;;19.50;99.90;;;;;;5070941;28;20300;-70
2023/09/13 11:42:27;;;;;;;4.20;1.35;;;19.40;99.90;;;;;;5054065;28;19923;-70
2023/09/13 11:44:54;;;;;;;4.45;1.63;;;19.20;99.90;;;;;;5076850;28;20508;-70
2023/09/13 11:47:20;;;;;;;5.35;1.70;;;19.10;99.90;;;;;;5059610;28;20116;-70
2023/09/13 11:49:47;;;;;;;2.70;1.33;;;19.10;99.90;;;;;;5046395;28;20049;-70
2023/09/13 11:52:12;;;;;;;4.57;1.80;;;19.10;99.90;;;;;;5081409;28;20044;-70
2023/09/13 11:54:56;;;;;;;3.70;1.35;;;19.10;99.90;;;;;;5085205;28;20038;-70
2023/09/13 11:57:22;;;;;;;7.55;1.40;;;19.20;99.90;;;;;;5062119;28;20052;-70
2023/09/13 11:59:59;;;;;;;5.53;1.60;;;19.30;99.90;;;;;;5073385;28;20052;-70
2023/09/13 12:02:26;;;;;;;7.32;1.77;;;19.30;99.90;;;;;;5054266;28;20040;-70
2023/09/13 12:04:53;;;;;;;3.40;1.13;;;19.30;99.90;;;;;;5057709;28;20687;-70
2023/09/13 12:07:20;;;;;;;3.00;1.30;;;19.30;99.90;;;;;;5056820;28;20547;-70
2023/09/13 12:09:55;;;;;;;3.55;1.42;;;19.30;99.90;;;;;;5079602;28;20052;-70
2023/09/13 12:12:22;;;;;;;4.75;1.17;;;19.20;99.90;;;;;;5078648;28;20046;-70
2023/09/13 12:14:48;;;;;;;3.67;1.40;;;19.10;99.90;;;;;;5060408;28;20147;-70
2023/09/13 12:17:13;;;;;;;3.15;1.20;;;19.00;99.90;;;;;;5083869;28;20530;-70
2023/09/13 12:19:39;;;;;;;8.77;1.17;;;18.90;99.90;;;;;;5070673;28;20049;-70
2023/09/13 12:22:05;;;;;;;2.78;1.00;;;18.80;99.90;;;;;;5077330;28;20032;-70
2023/09/13 12:24:31;;;;;;;3.50;0.80;;;18.70;99.90;;;;;;5068837;28;20036;-70
2023/09/13 12:26:56;;;;;;;3.67;1.30;;;18.70;99.90;;;;;;5055844;28;20342;-70
2023/09/13 12:29:22;;;;;;;2.60;0.90;;;18.80;99.90;;;;;;5066832;28;20044;-70
2023/09/13 12:31:49;;;;;;;2.40;1.00;;;19.00;99.90;;;;;;5057152;28;20581;-70
2023/09/13 12:34:15;;;;;;;2.53;0.73;;;19.10;99.90;;;;;;5050539;28;20127;-70
2023/09/13 12:36:41;;;;;;;;;;;19.20;99.90;;;;;;5060210;28;20046;-70
2023/09/13 12:39:14;;;;;;;5.68;1.45;;;19.20;99.90;;;;;;5081187;28;19921;-70
2023/09/13 12:41:40;;;;;;;5.05;0.93;;;19.10;99.90;;;;;;5077860;28;20501;-70
2023/09/13 12:44:06;;;;;;;1.63;0.77;;;19.10;99.90;;;;;;5066011;28;20040;-70
2023/09/13 12:46:33;;;;;;;2.38;0.60;;;19.00;99.90;;;;;;5062170;28;20040;-70
2023/09/13 12:49:01;;;;;;;3.92;0.93;;;19.00;99.90;;;;;;5060544;28;20070;-70
2023/09/13 12:51:28;;;;;;;3.70;0.82;;;19.00;99.90;;;;;;5080385;28;20546;-70
2023/09/13 12:53:55;;;;;;;2.20;0.70;;;19.00;99.90;;;;;;5084599;28;20082;-70